PWSweather.com
Personal Weather Stations
Station Observations
FAUSKE
Nordland, Norway, FauskeNO 8200

Nordland, NorwayFauskeNO 8200

Lat: 67.2607586, Lon: 15.4114204

Elevation: 40

Station Type: Davis Vantage PRO2

http://www.bjornli.net/weather.html

Latest ConditionsUpdated 6:10:00 AM GMT+01:01 Thursday, Jun 27, 2019
Currently Today's Max Today's Min Today's Average
Temperature 47.6°F8.7°C 47.6°F8.7°C 45.9°F7.7°C 46.7°F8.2°C
Dew Point 46.2°F7.9°C 46.5°F8.1°C 44.8°F7.1°C 45.6°F7.6°C
Winds Calm Calm 9.0 mph -14.5 kmh - - 1.2 mph 1.9 kmh
Wind Gusts 6.0 mph9.7 kmh 15.0 mph24.1 kmh - -
Humidity 95% 96% 95% 96%
Pressure 29.94 in1013.9 mb 29.94 in1013.9 mb 29.89 in1012.2 mb -
Hour Temp Dew Point Humidity Winds Wind Gusts Pressure Precip Precip Rate Daily Precip Total
06:10 AM 47.6°F8.7°C 46.2°F7.9°C 95% Calm Calm 6.0 mph9.7 kmh 29.94 in1013.9 mb 0.01 in0.3 mm 0.00 in0.0 mm 0.04 in1.0 mm
06:00 AM 47.6°F8.7°C 46.5°F8.1°C 96% 4.0 mph WSW6.4 kmh WSW 5.0 mph8.0 kmh 29.94 in1013.9 mb 0.01 in0.3 mm 0.00 in0.0 mm 0.04 in1.0 mm
05:40 AM 47.3°F8.5°C 46.2°F7.9°C 96% Calm Calm 5.0 mph8.0 kmh 29.94 in1013.9 mb 0.01 in0.3 mm 0.06 in1.5 mm 0.04 in1.0 mm
05:30 AM 47.3°F8.5°C 46.2°F7.9°C 96% 3.0 mph WSW4.8 kmh WSW 5.0 mph8.0 kmh 29.93 in1013.5 mb 0.00 in0.0 mm 0.00 in0.0 mm 0.03 in0.8 mm
05:09 AM 47.3°F8.5°C 46.2°F7.9°C 96% 1.0 mph WSW1.6 kmh WSW 11.0 mph17.7 kmh 29.93 in1013.5 mb 0.01 in0.3 mm 0.00 in0.0 mm 0.03 in0.8 mm
05:00 AM 47.2°F8.4°C 46.1°F7.8°C 96% 3.0 mph WSW4.8 kmh WSW 5.0 mph8.0 kmh 29.92 in1013.2 mb 0.01 in0.3 mm 0.00 in0.0 mm 0.03 in0.8 mm
04:40 AM 47.0°F8.3°C 45.9°F7.7°C 96% 4.0 mph WSW6.4 kmh WSW 10.0 mph16.1 kmh 29.92 in1013.2 mb 0.01 in0.3 mm 0.00 in0.0 mm 0.03 in0.8 mm
04:30 AM 47.1°F8.4°C 46.0°F7.8°C 96% 3.0 mph WSW4.8 kmh WSW 3.0 mph4.8 kmh 29.92 in1013.2 mb 0.01 in0.3 mm 0.03 in0.8 mm 0.03 in0.8 mm
04:10 AM 47.0°F8.3°C 45.9°F7.7°C 96% 9.0 mph WSW14.5 kmh WSW 15.0 mph24.1 kmh 29.92 in1013.2 mb 0.00 in0.0 mm 0.00 in0.0 mm 0.02 in0.5 mm
04:00 AM 46.9°F8.3°C 45.8°F7.7°C 96% Calm Calm 6.0 mph9.7 kmh 29.91 in1012.9 mb 0.00 in0.0 mm 0.00 in0.0 mm 0.02 in0.5 mm
03:40 AM 46.7°F8.2°C 45.6°F7.6°C 96% Calm Calm 10.0 mph16.1 kmh 29.91 in1012.9 mb 0.01 in0.3 mm 0.00 in0.0 mm 0.02 in0.5 mm
03:30 AM 46.4°F8.0°C 45.3°F7.4°C 96% 1.0 mph W1.6 kmh W 5.0 mph8.0 kmh 29.91 in1012.9 mb 0.01 in0.3 mm 0.00 in0.0 mm 0.02 in0.5 mm
03:09 AM 46.0°F7.8°C 44.9°F7.2°C 96% 3.0 mph WSW4.8 kmh WSW 4.0 mph6.4 kmh 29.92 in1013.2 mb 0.02 in0.5 mm 0.00 in0.0 mm 0.02 in0.5 mm
03:00 AM 46.1°F7.8°C 45.0°F7.2°C 96% Calm Calm -- 29.91 in1012.9 mb 0.02 in0.5 mm 0.00 in0.0 mm 0.02 in0.5 mm
02:40 AM 46.4°F8.0°C 45.3°F7.4°C 96% Calm Calm 11.0 mph17.7 kmh 29.91 in1012.9 mb 0.02 in0.5 mm 0.06 in1.5 mm 0.02 in0.5 mm
02:30 AM 46.4°F8.0°C 45.3°F7.4°C 96% Calm Calm -- 29.91 in1012.9 mb 0.01 in0.3 mm 0.03 in0.8 mm 0.01 in0.3 mm
02:09 AM 46.1°F7.8°C 45.0°F7.2°C 96% Calm Calm 4.0 mph6.4 kmh 29.91 in1012.9 mb 0.00 in0.0 mm 0.00 in0.0 mm 0.00 in0.0 mm
02:00 AM 46.1°F7.8°C 45.0°F7.2°C 96% Calm Calm -- 29.91 in1012.9 mb 0.00 in0.0 mm 0.00 in0.0 mm 0.00 in0.0 mm
01:40 AM 45.9°F7.7°C 44.8°F7.1°C 96% Calm Calm 6.0 mph9.7 kmh 29.91 in1012.9 mb 0.00 in0.0 mm 0.00 in0.0 mm 0.00 in0.0 mm
01:30 AM 45.9°F7.7°C 44.8°F7.1°C 96% 1.0 mph WSW1.6 kmh WSW 4.0 mph6.4 kmh 29.91 in1012.9 mb 0.00 in0.0 mm 0.00 in0.0 mm 0.00 in0.0 mm
01:10 AM 46.1°F7.8°C 45.0°F7.2°C 96% Calm Calm 4.0 mph6.4 kmh 29.90 in1012.5 mb 0.00 in0.0 mm 0.00 in0.0 mm 0.00 in0.0 mm
01:00 AM 46.4°F8.0°C 45.3°F7.4°C 96% Calm Calm -- 29.90 in1012.5 mb 0.00 in0.0 mm 0.00 in0.0 mm 0.00 in0.0 mm
12:40 AM 46.4°F8.0°C 45.3°F7.4°C 96% Calm Calm 8.0 mph12.9 kmh 29.89 in1012.2 mb 0.00 in0.0 mm 0.00 in0.0 mm 0.00 in0.0 mm
12:30 AM 46.6°F8.1°C 45.5°F7.5°C 96% Calm Calm 4.0 mph6.4 kmh 29.90 in1012.5 mb 0.00 in0.0 mm 0.00 in0.0 mm 0.00 in0.0 mm
12:09 AM 46.8°F8.2°C 45.7°F7.6°C 96% Calm Calm 5.0 mph8.0 kmh 29.89 in1012.2 mb 0.00 in0.0 mm 0.00 in0.0 mm 0.00 in0.0 mm
12:00 AM 46.8°F8.2°C 45.7°F7.6°C 96% Calm Calm -- 29.89 in1012.2 mb 0.00 in0.0 mm 0.00 in0.0 mm 0.00 in0.0 mm